This is the latest recevied weather packets stored in our database for station/object K0CVS. If no packets are shown the sender has not sent any weather packets the latest 10 day(s).
| Time | Temp. | Humidity | Pressure | Rain* | Wind** | Luminosity | Snow |
|---|---|---|---|---|---|---|---|
| 1777963960 | 13.89° C | 62% | 1007.8 hPa | 0 mm | - | 0 W/m² | - |
| 1777963657 | 13.89° C | 60% | 1007.8 hPa | 0 mm | - | 0 W/m² | - |
| 1777963355 | 13.89° C | 58% | 1007.6 hPa | 0 mm | - | 0 W/m² | - |
| 1777963052 | 13.89° C | 55% | 1007.4 hPa | 0 mm | - | 0 W/m² | - |
| 1777962748 | 14.44° C | 59% | 1007.2 hPa | 0 mm | - | 0 W/m² | - |
| 1777962444 | 14.44° C | 59% | 1006.5 hPa | 1.27 mm | - | 0 W/m² | - |
| 1777962143 | 14.44° C | 63% | 1007.4 hPa | 1.27 mm | - | 0 W/m² | - |
| 1777961839 | 14.44° C | 66% | 1007.1 hPa | 0 mm | - | 0 W/m² | - |
| 1777961537 | 14.44° C | 68% | 1006.8 hPa | 0 mm | - | 0 W/m² | - |
| 1777961234 | 14.44° C | 72% | 1006.1 hPa | 0 mm | - | 0 W/m² | - |
| 1777960931 | 14.44° C | 70% | 1006.2 hPa | 0 mm | - | 0 W/m² | - |
| 1777960626 | 14.44° C | 71% | 1005.9 hPa | 0 mm | - | 0 W/m² | - |
| 1777960323 | 14.44° C | 77% | 1005.9 hPa | 0 mm | - | 0 W/m² | - |
| 1777960020 | 14.44° C | 79% | 1005.7 hPa | 1.78 mm | - | 0 W/m² | - |
| 1777959718 | 13.89° C | 82% | 1005.4 hPa | 1.78 mm | - | 0 W/m² | - |
| 1777959416 | 13.89° C | 84% | 1005.5 hPa | 0 mm | - | 0 W/m² | - |
| 1777959112 | 13.89° C | 85% | 1005.6 hPa | 0 mm | - | 0 W/m² | - |
| 1777958809 | 13.89° C | 84% | 1005.6 hPa | 0 mm | - | 0 W/m² | - |
| 1777958506 | 13.89° C | 82% | 1005.6 hPa | 1.27 mm | - | 0 W/m² | - |
| 1777958203 | 14.44° C | 81% | 1005.5 hPa | 1.27 mm | - | 0 W/m² | - |
| 1777957902 | 15.56° C | 79% | 1005.4 hPa | 0 mm | - | 0 W/m² | - |
| 1777957599 | 16.67° C | 73% | 1005.5 hPa | 0 mm | - | 0 W/m² | - |
| 1777957297 | 18.89° C | 64% | 1005.3 hPa | 0 mm | - | 0 W/m² | - |
| 1777956992 | 20.56° C | 50% | 1005.2 hPa | 0 mm | - | 0 W/m² | - |
| 1777956690 | 21.67° C | 40% | 1004.8 hPa | 0 mm | - | 0 W/m² | - |
* Rain latest hour (hover to see other rain measurements)
** Current wind speed in m/s (hover to see current wind gust speed)